Time;durP1;ratioP1;P1;durP2;ratioP2;P2;SDS_P1;SDS_P2;PMS_P1;PMS_P2;Temp;Humidity;BMP_temperature;BMP_pressure;BME280_temperature;BME280_humidity;BME280_pressure;Samples;Min_cycle;Max_cycle;Signal;HPM_P1;HPM_P2
2021/12/05 00:23:02;;;;;;;46.42;23.98;;;;;;;3.64;100.00;93764.72;4975234;28;19936;-83
2021/12/05 00:25:30;;;;;;;45.03;25.08;;;;;;;3.54;100.00;93771.34;4975234;28;20046;-83
2021/12/05 00:28:33;;;;;;;46.83;22.30;;;;;;;3.61;100.00;93762.22;4975199;28;20023;-83
2021/12/05 00:49:56;;;;;;;47.58;24.58;;;;;;;3.57;100.00;93748.22;4976839;28;20478;-83
2021/12/05 00:58:25;;;;;;;42.47;22.52;;;;;;;3.39;100.00;93739.09;4975524;28;20041;-83
2021/12/05 01:16:28;;;;;;;64.70;34.42;;;;;;;3.41;100.00;93735.97;4976507;28;20034;-84
2021/12/05 01:18:54;;;;;;;65.70;32.45;;;;;;;3.43;100.00;93728.94;4975734;28;20196;-84
2021/12/05 01:21:22;;;;;;;65.05;32.08;;;;;;;3.27;100.00;93727.41;4975860;28;20500;-83
2021/12/05 01:24:01;;;;;;;56.08;30.75;;;;;;;3.26;100.00;93723.25;4975181;28;20097;-83
2021/12/05 01:26:35;;;;;;;60.55;29.58;;;;;;;3.24;100.00;93722.22;4973578;28;20441;-83
2021/12/05 01:29:15;;;;;;;54.00;26.60;;;;;;;3.21;100.00;93711.22;4974432;28;20061;-83
2021/12/05 01:53:17;;;;;;;50.15;26.40;;;;;;;2.63;100.00;93688.31;4974815;28;20081;-83
2021/12/05 02:34:24;;;;;;;54.33;27.00;;;;;;;2.84;100.00;93732.88;4992793;28;20420;-83
2021/12/05 02:37:04;;;;;;;58.83;28.30;;;;;;;3.05;100.00;93733.06;4994100;28;20100;-82
2021/12/05 02:42:24;;;;;;;49.35;24.25;;;;;;;3.24;100.00;93722.22;4978083;28;20039;-83
2021/12/05 02:44:50;;;;;;;46.42;22.35;;;;;;;3.21;100.00;93713.16;5008972;28;20027;-83
2021/12/05 02:47:19;;;;;;;44.20;22.95;;;;;;;3.40;100.00;93713.03;4977137;28;20498;-84
2021/12/05 02:49:47;;;;;;;46.85;23.50;;;;;;;3.51;100.00;93708.59;5008803;28;20035;-84
2021/12/05 02:52:21;;;;;;;45.30;22.48;;;;;;;3.45;100.00;93713.13;4977421;28;20058;-84
2021/12/05 02:54:51;;;;;;;41.40;22.38;;;;;;;3.55;100.00;93708.44;4977273;28;20045;-84
2021/12/05 02:57:25;;;;;;;45.85;23.85;;;;;;;3.58;100.00;93696.78;4977567;28;20448;-84
2021/12/05 02:59:55;;;;;;;45.80;22.05;;;;;;;3.57;100.00;93700.66;4977191;28;20026;-84
2021/12/05 03:02:26;;;;;;;44.35;22.83;;;;;;;3.75;100.00;93697.09;4977303;28;20034;-83
2021/12/05 03:04:55;;;;;;;47.22;23.88;;;;;;;3.85;100.00;93714.59;4975912;28;20023;-83
2021/12/05 03:07:26;;;;;;;46.63;22.98;;;;;;;3.86;100.00;93709.97;4976700;28;20050;-83
2021/12/05 03:09:52;;;;;;;43.85;23.83;;;;;;;3.88;100.00;93713.66;4977061;28;20038;-83
2021/12/05 03:12:19;;;;;;;46.40;23.50;;;;;;;3.89;100.00;93712.47;4976901;28;20384;-83
2021/12/05 03:14:50;;;;;;;45.65;22.90;;;;;;;3.90;100.00;93710.53;4975626;28;20042;-83
2021/12/05 03:17:16;;;;;;;44.75;21.48;;;;;;;3.95;100.00;93706.44;4976722;28;20035;-82
2021/12/05 03:19:41;;;;;;;46.13;22.65;;;;;;;4.02;100.00;93706.84;4976360;28;20026;-82
2021/12/05 03:22:07;;;;;;;44.17;22.30;;;;;;;4.01;100.00;93704.63;4976531;28;20045;-83
2021/12/05 03:24:34;;;;;;;44.22;22.20;;;;;;;4.09;100.00;93705.72;4976636;28;20441;-83
2021/12/05 03:26:59;;;;;;;42.63;23.15;;;;;;;4.16;100.00;93699.97;4976332;28;20026;-83
2021/12/05 03:29:25;;;;;;;41.22;22.98;;;;;;;4.17;100.00;93706.06;4976189;28;20023;-83
2021/12/05 03:31:52;;;;;;;43.30;22.30;;;;;;;4.19;100.00;93709.03;4975942;28;20093;-82
2021/12/05 03:34:19;;;;;;;43.97;22.63;;;;;;;4.19;100.00;93714.41;4975594;28;20046;-82
2021/12/05 03:36:47;;;;;;;47.40;23.88;;;;;;;4.11;100.00;93708.66;4976331;28;20026;-83
2021/12/05 03:39:14;;;;;;;41.70;22.77;;;;;;;4.11;100.00;93703.28;4976881;28;20445;-82
2021/12/05 03:41:41;;;;;;;41.00;22.40;;;;;;;4.21;100.00;93702.00;4976471;28;20443;-83
2021/12/05 03:44:09;;;;;;;45.60;22.50;;;;;;;4.17;100.00;93695.31;4978351;28;20058;-83
2021/12/05 03:46:36;;;;;;;47.10;22.73;;;;;;;4.31;100.00;93694.59;4979642;28;20105;-83
2021/12/05 03:49:07;;;;;;;45.42;22.83;;;;;;;4.23;100.00;93704.97;4977470;28;20396;-82
2021/12/05 03:51:36;;;;;;;39.50;23.33;;;;;;;3.74;100.00;93692.91;4976287;28;20034;-83
2021/12/05 03:54:03;;;;;;;41.25;22.92;;;;;;;3.62;100.00;93702.72;4975937;28;20054;-82
2021/12/05 03:56:29;;;;;;;49.63;24.05;;;;;;;3.63;100.00;93698.81;4974753;28;20397;-82
2021/12/05 03:58:54;;;;;;;43.75;23.88;;;;;;;3.46;100.00;93706.56;4975519;28;20064;-81
2021/12/05 04:01:20;;;;;;;47.13;25.55;;;;;;;3.69;100.00;93694.28;4974730;28;20536;-83
2021/12/05 04:03:47;;;;;;;49.10;25.30;;;;;;;3.89;100.00;93696.34;4974533;28;20050;-83
2021/12/05 04:06:16;;;;;;;46.70;24.23;;;;;;;4.00;100.00;93703.84;4975767;28;20101;-83
2021/12/05 04:08:42;;;;;;;48.90;24.08;;;;;;;4.02;100.00;93695.34;4975783;28;20452;-83
2021/12/05 04:11:14;;;;;;;48.42;25.13;;;;;;;4.18;100.00;93702.19;4975576;28;20050;-83
2021/12/05 04:13:40;;;;;;;47.00;25.85;;;;;;;4.27;100.00;93709.41;4976305;28;20038;-83
2021/12/05 04:16:06;;;;;;;46.70;24.70;;;;;;;4.29;100.00;93709.69;5007184;28;20062;-82
2021/12/05 04:18:33;;;;;;;48.47;24.73;;;;;;;4.20;100.00;93703.22;4975604;28;20027;-83
2021/12/05 04:20:59;;;;;;;48.25;25.75;;;;;;;3.85;100.00;93687.75;4975514;28;20035;-84
2021/12/05 04:23:25;;;;;;;44.88;24.30;;;;;;;4.09;100.00;93694.22;4975243;28;20050;-83
2021/12/05 04:25:52;;;;;;;46.67;25.17;;;;;;;4.06;100.00;93712.75;4975212;28;20027;-84
2021/12/05 04:28:19;;;;;;;45.20;24.30;;;;;;;4.15;100.00;93717.28;5006872;28;20102;-84
2021/12/05 04:30:46;;;;;;;40.35;23.67;;;;;;;4.26;100.00;93713.31;4975471;28;20122;-84
2021/12/05 04:33:11;;;;;;;42.28;24.33;;;;;;;4.29;100.00;93710.41;4974971;28;20058;-83
2021/12/05 04:35:37;;;;;;;43.45;24.08;;;;;;;4.00;100.00;93719.22;4974932;28;20030;-83
2021/12/05 04:38:03;;;;;;;56.92;26.70;;;;;;;3.77;100.00;93705.41;4974936;28;20027;-83
2021/12/05 04:40:29;;;;;;;72.97;31.20;;;;;;;3.88;100.00;93702.91;4974917;28;20056;-83
2021/12/05 04:42:54;;;;;;;76.88;34.05;;;;;;;3.96;100.00;93716.72;4974865;28;20423;-83
2021/12/05 04:45:26;;;;;;;70.93;32.88;;;;;;;3.69;100.00;93717.72;4973580;28;20092;-84
2021/12/05 04:47:52;;;;;;;51.05;27.23;;;;;;;3.58;100.00;93715.56;4975264;28;20491;-84
2021/12/05 04:50:19;;;;;;;46.50;26.42;;;;;;;3.86;100.00;93731.44;4974949;28;20037;-84
2021/12/05 04:52:45;;;;;;;57.88;29.00;;;;;;;3.85;100.00;93727.28;4974868;28;20395;-84
2021/12/05 04:55:11;;;;;;;63.67;31.13;;;;;;;4.16;100.00;93726.06;4974744;28;20357;-84
2021/12/05 04:57:39;;;;;;;51.33;28.10;;;;;;;3.62;100.00;93729.53;4974847;28;20105;-83
2021/12/05 05:00:13;;;;;;;52.10;25.55;;;;;;;3.50;100.00;93723.22;4973957;28;20038;-83
2021/12/05 05:02:39;;;;;;;50.80;26.17;;;;;;;3.72;100.00;93739.00;5006363;28;20368;-83
2021/12/05 05:05:05;;;;;;;47.33;26.40;;;;;;;3.70;100.00;93740.66;4974838;28;20494;-84
2021/12/05 05:07:31;;;;;;;52.55;27.33;;;;;;;3.63;100.00;93746.41;4974574;28;20031;-83
2021/12/05 05:10:06;;;;;;;50.35;25.73;;;;;;;3.73;100.00;93745.13;4974454;28;20038;-83
2021/12/05 05:12:31;;;;;;;50.55;25.75;;;;;;;4.02;100.00;93744.41;4975114;28;20034;-83
2021/12/05 05:14:57;;;;;;;43.33;24.77;;;;;;;4.01;100.00;93752.94;4974288;28;20030;-82
2021/12/05 05:17:23;;;;;;;45.28;24.45;;;;;;;3.81;100.00;93756.97;4974385;28;20038;-83
2021/12/05 05:19:53;;;;;;;45.08;25.17;;;;;;;3.88;100.00;93756.59;4974542;28;20050;-83
2021/12/05 05:43:50;;;;;;;55.83;29.85;;;;;;;3.89;100.00;93749.31;4974242;28;20041;-82
2021/12/05 05:46:17;;;;;;;63.10;31.15;;;;;;;3.94;100.00;93748.69;4974289;28;20432;-82
2021/12/05 05:49:11;;;;;;;56.92;30.27;;;;;;;3.91;100.00;93754.22;4974172;28;20038;-82
2021/12/05 05:51:37;;;;;;;59.40;31.38;;;;;;;4.06;100.00;93749.59;4974506;28;20113;-82
2021/12/05 05:54:03;;;;;;;57.08;28.98;;;;;;;4.00;100.00;93743.41;4974103;28;20509;-83
2021/12/05 05:56:30;;;;;;;55.05;30.13;;;;;;;4.00;100.00;93732.66;4974827;28;20027;-82
2021/12/05 05:59:03;;;;;;;60.45;32.33;;;;;;;3.91;100.00;93736.16;4977909;28;20058;-81
2021/12/05 06:04:00;;;;;;;60.20;32.67;;;;;;;3.88;100.00;93739.78;4978270;28;20034;-82
2021/12/05 06:06:27;;;;;;;62.67;31.00;;;;;;;3.86;100.00;93742.91;4977850;28;20061;-83
2021/12/05 06:08:53;;;;;;;63.60;33.13;;;;;;;4.10;100.00;93750.16;4977775;28;20031;-82
2021/12/05 06:11:19;;;;;;;72.63;34.83;;;;;;;3.80;100.00;93758.16;4977156;28;20030;-82
2021/12/05 06:13:45;;;;;;;77.47;35.47;;;;;;;3.86;100.00;93753.66;4977867;28;20054;-82
2021/12/05 06:16:14;;;;;;;70.43;36.53;;;;;;;4.09;100.00;93767.50;4977705;28;20035;-82
2021/12/05 06:18:39;;;;;;;59.03;31.67;;;;;;;4.02;100.00;93760.53;4977572;28;20026;-83
2021/12/05 06:21:07;;;;;;;64.72;31.13;;;;;;;4.22;100.00;93772.56;4977593;28;20037;-83
2021/12/05 06:23:33;;;;;;;59.15;30.70;;;;;;;4.20;100.00;93775.00;4977472;28;20117;-83
2021/12/05 06:25:59;;;;;;;67.22;30.90;;;;;;;4.44;100.00;93766.81;4977441;28;20122;-83
2021/12/05 06:28:36;;;;;;;67.60;30.77;;;;;;;4.12;100.00;93763.88;4978306;28;20494;-83
2021/12/05 06:31:14;;;;;;;59.45;30.30;;;;;;;4.39;100.00;93775.53;4978144;28;20022;-83
2021/12/05 06:46:59;;;;;;;57.83;30.02;;;;;;;5.49;100.00;93813.06;4977555;28;20033;-79
2021/12/05 06:49:24;;;;;;;56.42;30.67;;;;;;;5.18;100.00;93819.78;4976881;28;20022;-81
2021/12/05 06:51:50;;;;;;;56.47;28.58;;;;;;;5.41;100.00;93815.44;4975920;28;20037;-81
2021/12/05 06:54:15;;;;;;;58.80;29.48;;;;;;;5.61;100.00;93832.81;4976768;28;20041;-81
2021/12/05 06:56:41;;;;;;;59.45;29.90;;;;;;;5.54;100.00;93833.94;4976585;28;20038;-77
2021/12/05 06:59:06;;;;;;;57.08;30.05;;;;;;;5.59;100.00;93835.97;4976672;28;20019;-77
2021/12/05 07:01:32;;;;;;;55.35;30.08;;;;;;;5.50;100.00;93836.09;4976271;28;20089;-81
2021/12/05 07:04:05;;;;;;;60.70;30.17;;;;;;;5.52;100.00;93836.38;5008109;28;20037;-81
2021/12/05 07:06:32;;;;;;;55.72;31.00;;;;;;;5.37;100.00;93835.66;4976962;28;20027;-80
2021/12/05 07:09:06;;;;;;;57.15;30.05;;;;;;;5.42;100.00;93843.06;4976287;28;20031;-80
2021/12/05 07:11:40;;;;;;;56.22;30.10;;;;;;;5.46;100.00;93834.81;4976822;28;20039;-81
2021/12/05 07:16:41;;;;;;;51.00;29.17;;;;;;;5.42;100.00;93827.66;4976665;28;20034;-81
2021/12/05 07:19:23;;;;;;;52.78;28.75;;;;;;;5.56;100.00;93831.53;4976691;28;20112;-80
2021/12/05 07:21:58;;;;;;;52.97;29.27;;;;;;;5.50;100.00;93836.09;4976612;28;20038;-80
2021/12/05 07:24:46;;;;;;;58.45;30.30;;;;;;;5.31;100.00;93837.56;4976963;28;20027;-80
2021/12/05 07:40:56;;;;;;;60.60;32.38;;;;;;;4.82;100.00;93815.56;4976314;28;20107;-80
2021/12/05 07:43:22;;;;;;;60.03;32.65;;;;;;;4.79;100.00;93811.84;4974975;28;20031;-82
2021/12/05 07:45:56;;;;;;;61.65;35.33;;;;;;;4.90;100.00;93822.78;4974879;28;20093;-82
2021/12/05 07:48:28;;;;;;;64.68;32.42;;;;;;;5.02;100.00;93809.50;4975842;28;20031;-81
2021/12/05 07:51:14;;;;;;;59.60;31.88;;;;;;;4.80;100.00;93813.34;4976368;28;20104;-81
2021/12/05 07:53:54;;;;;;;61.08;32.85;;;;;;;4.58;100.00;93802.97;4976448;28;20031;-83
2021/12/05 07:57:15;;;;;;;70.47;34.38;;;;;;;4.61;100.00;93809.34;4976263;28;20034;-81
2021/12/05 08:15:11;;;;;;;48.90;26.33;;;;;;;4.67;100.00;93807.50;4975496;28;20042;-79
2021/12/05 08:17:37;;;;;;;49.08;28.15;;;;;;;4.97;100.00;93820.94;5007667;28;20042;-78
2021/12/05 08:20:06;;;;;;;46.53;25.17;;;;;;;4.61;100.00;93828.16;4974812;28;20039;-79
2021/12/05 08:22:32;;;;;;;50.13;26.48;;;;;;;5.35;100.00;93832.72;4975337;28;20026;-81
2021/12/05 08:25:07;;;;;;;37.45;22.25;;;;;;;6.48;100.00;93834.03;4976709;28;20019;-78
2021/12/05 08:27:56;;;;;;;36.33;21.70;;;;;;;7.29;100.00;93831.47;4975379;28;20049;-79
2021/12/05 08:30:35;;;;;;;37.35;21.55;;;;;;;7.25;100.00;93837.13;4975804;28;20018;-79
2021/12/05 08:36:16;;;;;;;29.77;18.00;;;;;;;6.47;100.00;93842.59;4975711;28;20528;-78
2021/12/05 08:39:17;;;;;;;33.58;18.05;;;;;;;6.66;100.00;93840.34;4975218;28;20049;-78
2021/12/05 10:19:21;;;;;;;17.92;10.35;;;;;;;11.73;77.63;93707.88;4977929;28;20026;-84
2021/12/05 10:38:01;;;;;;;22.20;13.50;;;;;;;13.46;57.20;93698.78;4977735;28;20074;-83
2021/12/05 10:40:37;;;;;;;36.80;17.55;;;;;;;14.01;54.46;93696.16;4977888;28;20041;-84
2021/12/05 10:43:11;;;;;;;79.35;48.75;;;;;;;13.34;56.52;93688.03;4976326;28;20365;-85
2021/12/05 10:45:46;;;;;;;50.63;32.83;;;;;;;13.42;56.14;93682.00;4978250;28;20069;-84
2021/12/05 10:49:02;;;;;;;27.00;16.73;;;;;;;13.13;57.00;93673.59;4978272;28;20113;-85
2021/12/05 10:51:32;;;;;;;21.90;13.70;;;;;;;12.93;57.41;93661.34;4975966;28;20437;-83
2021/12/05 10:53:58;;;;;;;20.05;11.82;;;;;;;12.72;56.85;93661.94;4975743;28;20567;-83
2021/12/05 10:56:32;;;;;;;21.85;13.48;;;;;;;12.43;58.93;93660.91;4976007;28;20105;-80
2021/12/05 10:59:20;;;;;;;22.83;15.90;;;;;;;12.56;58.88;93650.06;4977612;28;20459;-82
2021/12/05 11:01:51;;;;;;;26.50;14.65;;;;;;;12.10;61.82;93646.59;4979934;28;20381;-85
2021/12/05 11:04:22;;;;;;;22.27;14.82;;;;;;;11.93;61.55;93641.34;4977667;28;20058;-83
2021/12/05 11:06:53;;;;;;;24.23;14.73;;;;;;;11.52;62.65;93636.97;4979785;28;20027;-87
2021/12/05 11:09:30;;;;;;;28.92;15.00;;;;;;;11.03;65.64;93635.06;5011690;28;20094;-88
2021/12/05 11:12:00;;;;;;;20.58;14.60;;;;;;;11.19;64.70;93642.28;4981062;28;20058;-88
2021/12/05 11:14:29;;;;;;;26.25;14.02;;;;;;;11.18;64.22;93635.41;4980735;28;20030;-89
2021/12/05 11:17:05;;;;;;;22.00;13.85;;;;;;;10.77;66.11;93625.47;4980565;28;20031;-89
2021/12/05 11:19:30;;;;;;;19.25;13.00;;;;;;;10.68;67.01;93615.69;5011275;28;20026;-89
2021/12/05 11:22:06;;;;;;;21.90;12.38;;;;;;;11.14;64.59;93613.97;4979783;28;20027;-89
2021/12/05 11:24:41;;;;;;;51.00;23.85;;;;;;;10.22;72.20;93604.47;4980193;28;20109;-89
2021/12/05 11:27:20;;;;;;;102.82;47.20;;;;;;;10.57;71.11;93608.41;4978739;28;20476;-88
2021/12/05 11:30:00;;;;;;;34.35;16.08;;;;;;;9.74;71.34;93611.97;4979991;28;20102;-88
2021/12/05 11:32:46;;;;;;;24.48;14.60;;;;;;;10.04;70.73;93599.72;4979570;28;20047;-88
2021/12/05 11:35:35;;;;;;;26.35;14.68;;;;;;;9.51;72.68;93592.41;4979974;28;20034;-87
2021/12/05 11:38:03;;;;;;;23.92;12.88;;;;;;;9.33;72.79;93587.59;4980911;28;20522;-85
2021/12/05 11:40:45;;;;;;;24.25;13.82;;;;;;;9.37;74.15;93582.66;5016497;28;20117;-91
2021/12/05 11:43:17;;;;;;;24.52;13.48;;;;;;;9.38;75.07;93573.28;4990419;28;20027;-90
2021/12/05 11:45:58;;;;;;;25.75;15.23;;;;;;;9.13;76.75;93562.34;4994414;28;20042;-90
2021/12/05 11:48:32;;;;;;;29.20;15.23;;;;;;;9.04;77.91;93559.91;4993967;28;20476;-91
2021/12/05 11:51:00;;;;;;;27.63;15.40;;;;;;;9.16;77.43;93561.34;4993045;28;20023;-90
2021/12/05 11:54:05;;;;;;;23.25;13.80;;;;;;;8.99;76.35;93558.00;4992864;28;20046;-91
2021/12/05 11:56:30;;;;;;;23.70;14.52;;;;;;;8.79;77.70;93559.78;4979909;28;20023;-91
2021/12/05 11:59:17;;;;;;;28.88;14.13;;;;;;;8.57;79.23;93555.91;4981475;28;20471;-91
2021/12/05 12:01:52;;;;;;;33.22;14.18;;;;;;;8.41;80.26;93560.13;4981838;28;20138;-91
2021/12/05 12:04:21;;;;;;;24.95;14.25;;;;;;;8.65;80.10;93550.72;4981773;28;20092;-91
2021/12/05 12:07:24;;;;;;;26.50;15.38;;;;;;;8.37;80.92;93548.81;4980655;28;20041;-91
2021/12/05 12:09:56;;;;;;;31.00;14.82;;;;;;;9.09;77.13;93549.09;4978935;28;20048;-91
2021/12/05 12:12:26;;;;;;;24.73;12.98;;;;;;;8.58;79.50;93538.47;4978639;28;20480;-91
2021/12/05 12:14:52;;;;;;;25.55;14.13;;;;;;;8.55;81.17;93538.69;4983025;28;20038;-90
2021/12/05 12:17:18;;;;;;;29.05;16.25;;;;;;;8.59;79.91;93542.63;4992910;28;20027;-87
2021/12/05 12:19:47;;;;;;;29.67;15.45;;;;;;;8.85;79.62;93536.16;4994599;28;20030;-92
2021/12/05 12:22:16;;;;;;;24.70;14.80;;;;;;;9.02;78.11;93543.47;4993230;28;20034;-91
2021/12/05 12:24:42;;;;;;;29.23;14.70;;;;;;;8.98;78.16;93532.88;4989565;28;20037;-92
2021/12/05 12:27:08;;;;;;;23.17;14.32;;;;;;;8.74;77.98;93519.94;4985758;28;20022;-91
2021/12/05 12:29:36;;;;;;;22.65;13.70;;;;;;;9.22;77.05;93528.84;4994198;28;20031;-89
2021/12/05 12:32:11;;;;;;;26.75;14.27;;;;;;;9.32;76.46;93532.72;4996848;28;20035;-90
2021/12/05 12:34:38;;;;;;;30.75;16.52;;;;;;;8.86;77.94;93524.09;4986826;28;20031;-90
2021/12/05 12:37:06;;;;;;;25.15;14.35;;;;;;;8.93;77.70;93534.41;4976988;28;20437;-90
2021/12/05 12:39:38;;;;;;;22.88;12.88;;;;;;;8.55;78.86;93519.78;4976168;28;20045;-90
2021/12/05 12:42:23;;;;;;;21.65;13.27;;;;;;;8.82;77.92;93525.59;4976325;28;20031;-89
2021/12/05 12:45:01;;;;;;;26.73;14.65;;;;;;;9.10;77.16;93523.47;5008844;28;20039;-89
2021/12/05 12:47:33;;;;;;;23.10;13.57;;;;;;;8.90;77.25;93518.41;4976192;28;20034;-89
2021/12/05 12:50:24;;;;;;;30.13;15.35;;;;;;;9.04;77.51;93519.31;4976431;28;20377;-89
2021/12/05 12:52:56;;;;;;;27.13;14.30;;;;;;;9.11;77.52;93518.81;4977240;28;20463;-89
2021/12/05 12:55:27;;;;;;;23.90;13.93;;;;;;;9.02;77.27;93506.28;4977984;28;20027;-89
2021/12/05 12:57:53;;;;;;;23.02;12.90;;;;;;;8.87;77.60;93511.31;4977133;28;20039;-89
2021/12/05 13:00:22;;;;;;;27.73;13.88;;;;;;;8.86;77.09;93504.41;4976174;28;20121;-89
2021/12/05 13:11:19;;;;;;;22.45;13.55;;;;;;;9.08;76.78;93511.66;4985611;28;20057;-89
2021/12/05 13:13:57;;;;;;;20.42;12.88;;;;;;;9.28;76.06;93507.88;4976134;28;20515;-89
2021/12/05 13:16:29;;;;;;;29.27;14.25;;;;;;;8.58;78.64;93497.16;4975967;28;20469;-89
2021/12/05 13:19:15;;;;;;;34.63;14.90;;;;;;;8.24;80.91;93505.34;4976751;28;20038;-89
2021/12/05 13:21:45;;;;;;;28.10;14.75;;;;;;;7.92;82.89;93498.28;4977125;28;20037;-89
2021/12/05 13:24:31;;;;;;;25.38;13.90;;;;;;;7.90;83.88;93503.44;4989116;28;20066;-88
2021/12/05 13:27:07;;;;;;;28.70;13.77;;;;;;;7.92;84.06;93494.81;4987526;28;20022;-89
2021/12/05 13:29:37;;;;;;;26.85;13.93;;;;;;;7.80;83.56;93494.13;4988628;28;20045;-89
2021/12/05 13:32:10;;;;;;;32.75;14.68;;;;;;;7.94;83.54;93487.69;4977862;28;20026;-80
2021/12/05 13:34:41;;;;;;;27.73;14.55;;;;;;;7.68;84.04;93490.69;4978807;28;20042;-82
2021/12/05 13:37:08;;;;;;;34.38;14.57;;;;;;;7.70;83.95;93488.25;4987152;28;20054;-85
2021/12/05 13:39:37;;;;;;;28.80;15.00;;;;;;;7.58;85.47;93484.81;4977690;28;20042;-77
2021/12/05 13:42:22;;;;;;;31.90;15.00;;;;;;;7.70;85.46;93498.28;4974212;28;20058;-76
2021/12/05 13:44:59;;;;;;;29.10;15.05;;;;;;;7.97;83.82;93502.19;4974314;28;20030;-75
2021/12/05 13:47:31;;;;;;;29.98;14.65;;;;;;;8.18;83.31;93505.38;4974098;28;20139;-76
2021/12/05 13:50:25;;;;;;;28.42;14.63;;;;;;;7.86;83.54;93497.53;4973889;28;20030;-76
2021/12/05 13:53:02;;;;;;;34.08;15.65;;;;;;;7.66;85.41;93492.41;4973934;28;20039;-77
2021/12/05 13:55:44;;;;;;;32.80;16.20;;;;;;;6.93;91.47;93493.81;5005442;28;20081;-77
2021/12/05 14:01:11;;;;;;;29.20;16.20;;;;;;;7.10;91.48;93493.81;4973901;28;20055;-78
2021/12/05 14:04:15;;;;;;;29.08;13.50;;;;;;;7.16;91.26;93489.19;4973971;28;20057;-77
2021/12/05 14:07:06;;;;;;;28.15;14.50;;;;;;;6.94;93.01;93490.63;4973493;28;20111;-81
2021/12/05 14:09:38;;;;;;;29.25;16.48;;;;;;;6.93;93.12;93491.84;4973989;28;20113;-78
2021/12/05 14:12:07;;;;;;;38.97;16.85;;;;;;;6.88;94.21;93497.94;4973696;28;20044;-80
2021/12/05 14:14:38;;;;;;;29.77;15.80;;;;;;;6.75;94.61;93486.91;4973924;28;20102;-78
2021/12/05 14:17:06;;;;;;;;;;;;;;;7.04;93.02;93487.69;4974380;28;20027;-80
2021/12/05 14:19:34;;;;;;;31.70;15.68;;;;;;;7.25;91.30;93490.91;4977457;28;19914;-80
2021/12/05 14:22:03;;;;;;;34.28;14.63;;;;;;;7.28;90.73;93492.66;4977527;28;20452;-76
2021/12/05 14:24:32;;;;;;;32.13;15.38;;;;;;;7.38;90.32;93495.84;4977248;28;20046;-76
2021/12/05 14:27:02;;;;;;;31.85;14.82;;;;;;;7.30;89.86;93495.59;4977620;28;20023;-79
2021/12/05 14:29:29;;;;;;;27.75;14.82;;;;;;;7.28;90.78;93490.69;4977545;28;20456;-79
2021/12/05 14:31:59;;;;;;;36.28;16.48;;;;;;;7.26;90.58;93495.09;4977002;28;20407;-77
2021/12/05 14:34:25;;;;;;;36.58;18.67;;;;;;;7.18;90.62;93481.31;4977069;28;20030;-78
2021/12/05 14:36:56;;;;;;;37.53;19.75;;;;;;;7.15;90.98;93490.41;4977589;28;20022;-79
2021/12/05 14:39:27;;;;;;;39.58;21.60;;;;;;;7.08;91.62;93482.81;4977375;28;20038;-78
2021/12/05 14:41:57;;;;;;;35.43;18.53;;;;;;;7.17;91.32;93471.78;4977152;28;20031;-81
2021/12/05 14:44:23;;;;;;;35.30;18.05;;;;;;;7.00;92.46;93476.41;4976989;28;20161;-80
2021/12/05 14:46:54;;;;;;;31.98;17.92;;;;;;;6.96;93.16;93492.81;4976908;28;20141;-79
2021/12/05 14:49:22;;;;;;;46.67;24.15;;;;;;;6.73;94.09;93478.53;4977509;28;20062;-81
2021/12/05 14:51:49;;;;;;;47.65;24.05;;;;;;;6.58;96.24;93482.16;4976886;28;20041;-76
2021/12/05 14:54:31;;;;;;;45.55;23.30;;;;;;;6.60;96.44;93495.19;4976071;28;20342;-79
2021/12/05 14:56:57;;;;;;;;;;;;;;;6.58;97.05;93503.72;4977812;28;20440;-78
2021/12/05 14:59:23;;;;;;;39.35;21.15;;;;;;;6.67;97.11;93504.78;4977155;28;19925;-80
2021/12/05 15:01:53;;;;;;;44.53;22.27;;;;;;;6.83;96.16;93517.56;4975857;28;20030;-80
2021/12/05 15:04:28;;;;;;;51.35;23.55;;;;;;;6.79;94.90;93511.69;5009206;28;20033;-80
2021/12/05 15:06:56;;;;;;;52.42;22.25;;;;;;;6.65;95.10;93507.19;4976998;28;20452;-78
2021/12/05 15:09:35;;;;;;;40.53;20.70;;;;;;;6.47;98.26;93508.38;4975663;28;20113;-77
2021/12/05 15:12:06;;;;;;;53.40;28.67;;;;;;;6.26;100.00;93506.53;4977444;28;20042;-78
2021/12/05 15:14:34;;;;;;;53.88;29.90;;;;;;;6.10;100.00;93493.72;4977928;28;20511;-80
2021/12/05 15:17:12;;;;;;;46.08;21.73;;;;;;;6.30;100.00;93500.19;5012280;28;20102;-79
2021/12/05 15:19:44;;;;;;;34.50;17.85;;;;;;;5.72;100.00;93503.75;4978728;28;20034;-80
2021/12/05 15:22:12;;;;;;;;;;;;;;;5.96;100.00;93508.81;4977683;28;20495;-83
2021/12/05 15:24:39;;;;;;;51.33;28.58;;;;;;;5.64;100.00;93508.09;4978040;28;20008;-87
2021/12/05 15:27:13;;;;;;;49.72;24.10;;;;;;;5.79;100.00;93508.69;4979732;28;20077;-87
2021/12/05 15:29:45;;;;;;;42.70;24.80;;;;;;;5.90;100.00;93508.78;4980169;28;20142;-86
2021/12/05 15:32:25;;;;;;;44.08;24.55;;;;;;;6.03;100.00;93504.97;4978166;28;20043;-85
2021/12/05 15:34:54;;;;;;;47.90;23.88;;;;;;;6.04;100.00;93501.03;4978406;28;20034;-88
2021/12/05 15:37:20;;;;;;;44.47;21.80;;;;;;;5.77;100.00;93519.19;4977579;28;20039;-79
2021/12/05 15:39:48;;;;;;;51.72;23.23;;;;;;;5.51;100.00;93521.94;4976176;28;20034;-79
2021/12/05 15:42:21;;;;;;;61.85;26.27;;;;;;;5.48;100.00;93517.50;4976000;28;20530;-80
2021/12/05 15:44:50;;;;;;;65.32;35.03;;;;;;;5.54;100.00;93527.09;4976131;28;20030;-79
2021/12/05 15:47:36;;;;;;;68.22;36.63;;;;;;;5.57;100.00;93534.22;4976278;28;20019;-80
2021/12/05 15:50:16;;;;;;;55.80;32.25;;;;;;;5.56;100.00;93530.06;4976543;28;20042;-80
2021/12/05 15:52:56;;;;;;;51.85;28.05;;;;;;;5.53;100.00;93541.75;4975771;28;20101;-80
2021/12/05 15:55:25;;;;;;;54.42;27.83;;;;;;;5.55;100.00;93550.13;4976291;28;20028;-80
2021/12/05 15:58:11;;;;;;;54.63;30.17;;;;;;;5.47;100.00;93538.28;5006982;28;20472;-80
2021/12/05 16:00:41;;;;;;;45.95;23.30;;;;;;;5.30;100.00;93545.47;4975861;28;20030;-79
2021/12/05 16:03:14;;;;;;;43.30;23.52;;;;;;;5.46;100.00;93549.53;4975533;28;20026;-78
2021/12/05 16:05:41;;;;;;;48.60;27.33;;;;;;;5.35;100.00;93553.59;4976110;28;20466;-81
2021/12/05 16:08:13;;;;;;;46.33;24.08;;;;;;;5.41;100.00;93561.72;4975042;28;20459;-79
2021/12/05 16:10:42;;;;;;;43.90;21.95;;;;;;;5.22;100.00;93551.28;4974158;28;20034;-80
2021/12/05 16:13:31;;;;;;;41.08;20.08;;;;;;;5.58;100.00;93562.59;4975450;28;20030;-82
2021/12/05 16:16:08;;;;;;;50.42;22.08;;;;;;;5.44;100.00;93549.28;4975331;28;20058;-77
2021/12/05 16:18:36;;;;;;;47.80;21.92;;;;;;;5.57;100.00;93561.13;4975641;28;20042;-72
2021/12/05 16:21:06;;;;;;;42.70;22.13;;;;;;;5.75;100.00;93557.38;4975587;28;20054;-76
2021/12/05 16:23:37;;;;;;;40.92;23.05;;;;;;;5.46;100.00;93552.97;4975214;28;20427;-77
2021/12/05 16:26:14;;;;;;;;;;;;;;;4.66;100.00;93561.44;4976284;28;20105;-82
2021/12/05 16:28:41;;;;;;;67.53;33.03;;;;;;;4.53;100.00;93570.56;4975194;28;19917;-79
2021/12/05 16:31:12;;;;;;;55.35;28.30;;;;;;;4.62;100.00;93567.00;4975305;28;20330;-78
2021/12/05 16:33:40;;;;;;;60.25;32.20;;;;;;;4.44;100.00;93557.25;4975352;28;20054;-81
2021/12/05 16:36:06;;;;;;;84.88;51.67;;;;;;;4.42;100.00;93559.69;4974911;28;20034;-79
2021/12/05 16:38:41;;;;;;;81.32;44.08;;;;;;;4.17;100.00;93556.44;4974978;28;20511;-80
2021/12/05 16:41:26;;;;;;;68.88;35.47;;;;;;;4.69;100.00;93550.47;4974222;28;20487;-81
2021/12/05 16:43:58;;;;;;;123.13;62.90;;;;;;;4.49;100.00;93559.28;4975050;28;20027;-81
2021/12/05 16:46:32;;;;;;;67.70;36.75;;;;;;;4.57;100.00;93554.97;4975662;28;20102;-81
2021/12/05 16:49:00;;;;;;;52.85;30.15;;;;;;;4.62;100.00;93550.13;4975147;28;20114;-77
2021/12/05 16:51:31;;;;;;;76.80;40.35;;;;;;;4.30;100.00;93558.06;5006458;28;20035;-78
2021/12/05 16:54:03;;;;;;;62.47;35.77;;;;;;;4.55;100.00;93557.41;4974787;28;20432;-78
2021/12/05 16:56:34;;;;;;;58.67;30.85;;;;;;;4.57;100.00;93557.66;4973681;28;20399;-79
2021/12/05 16:59:34;;;;;;;54.50;30.13;;;;;;;4.75;100.00;93569.34;4975130;28;20372;-81
2021/12/05 17:02:10;;;;;;;59.85;29.02;;;;;;;4.88;100.00;93566.31;4974006;28;20043;-79
2021/12/05 17:04:43;;;;;;;53.25;29.17;;;;;;;4.54;100.00;93563.22;4975346;28;20409;-79
2021/12/05 17:07:13;;;;;;;66.05;31.52;;;;;;;4.25;100.00;93582.88;4975138;28;20034;-80